sensor_id;sensor_type;location;lat;lon;timestamp;pressure;altitude;pressure_sealevel;temperature;humidity
11830;BME280;5972;42.134;24.718;2023-07-20T00:01:49;99135.78;;;27.50;78.67
11830;BME280;5972;42.134;24.718;2023-07-20T00:04:16;99157.53;;;27.69;76.19
11830;BME280;5972;42.134;24.718;2023-07-20T00:06:43;99169.88;;;27.68;75.01
11830;BME280;5972;42.134;24.718;2023-07-20T00:09:10;99178.25;;;27.59;74.70
11830;BME280;5972;42.134;24.718;2023-07-20T00:11:38;99170.53;;;27.63;73.90
11830;BME280;5972;42.134;24.718;2023-07-20T00:14:06;99156.31;;;27.61;70.43
11830;BME280;5972;42.134;24.718;2023-07-20T00:16:33;99183.09;;;27.92;69.52
11830;BME280;5972;42.134;24.718;2023-07-20T00:19:00;99163.66;;;27.83;70.57
11830;BME280;5972;42.134;24.718;2023-07-20T00:21:26;99146.84;;;27.77;70.09
11830;BME280;5972;42.134;24.718;2023-07-20T00:23:53;99136.34;;;28.05;68.33
11830;BME280;5972;42.134;24.718;2023-07-20T00:26:20;99115.28;;;28.22;66.48
11830;BME280;5972;42.134;24.718;2023-07-20T00:28:49;99112.41;;;28.31;66.15
11830;BME280;5972;42.134;24.718;2023-07-20T00:31:18;99103.91;;;28.35;63.61
11830;BME280;5972;42.134;24.718;2023-07-20T00:33:44;99106.50;;;28.38;64.66
11830;BME280;5972;42.134;24.718;2023-07-20T00:36:11;99088.25;;;28.37;63.70
11830;BME280;5972;42.134;24.718;2023-07-20T00:38:38;99092.66;;;28.53;60.89
11830;BME280;5972;42.134;24.718;2023-07-20T00:41:04;99082.09;;;28.57;59.69
11830;BME280;5972;42.134;24.718;2023-07-20T00:43:31;99069.16;;;28.69;58.94
11830;BME280;5972;42.134;24.718;2023-07-20T00:45:59;99051.50;;;28.72;58.46
11830;BME280;5972;42.134;24.718;2023-07-20T00:48:29;99060.81;;;28.69;57.82
11830;BME280;5972;42.134;24.718;2023-07-20T00:50:56;99049.84;;;28.65;58.49
11830;BME280;5972;42.134;24.718;2023-07-20T00:53:24;99066.16;;;28.58;59.21
11830;BME280;5972;42.134;24.718;2023-07-20T00:55:51;99059.94;;;28.63;57.14
11830;BME280;5972;42.134;24.718;2023-07-20T00:58:18;99076.91;;;28.65;58.58
11830;BME280;5972;42.134;24.718;2023-07-20T01:00:45;99073.75;;;28.72;57.98
11830;BME280;5972;42.134;24.718;2023-07-20T01:03:12;99073.44;;;28.79;57.50
11830;BME280;5972;42.134;24.718;2023-07-20T01:05:48;99051.72;;;28.44;58.09
11830;BME280;5972;42.134;24.718;2023-07-20T01:08:24;99075.00;;;28.71;58.20
11830;BME280;5972;42.134;24.718;2023-07-20T01:10:59;99066.78;;;28.76;57.69
11830;BME280;5972;42.134;24.718;2023-07-20T01:13:29;99051.81;;;28.74;56.67
11830;BME280;5972;42.134;24.718;2023-07-20T01:15:56;99063.16;;;28.85;56.48
11830;BME280;5972;42.134;24.718;2023-07-20T01:18:24;99050.09;;;28.91;56.48
11830;BME280;5972;42.134;24.718;2023-07-20T01:20:54;99050.00;;;28.85;57.08
11830;BME280;5972;42.134;24.718;2023-07-20T01:23:46;99033.25;;;28.71;56.67
11830;BME280;5972;42.134;24.718;2023-07-20T01:26:44;99029.53;;;28.74;56.95
11830;BME280;5972;42.134;24.718;2023-07-20T01:29:24;99034.75;;;28.81;56.13
11830;BME280;5972;42.134;24.718;2023-07-20T01:31:57;99029.06;;;28.75;57.35
11830;BME280;5972;42.134;24.718;2023-07-20T01:34:24;99018.97;;;28.78;56.34
11830;BME280;5972;42.134;24.718;2023-07-20T01:36:53;99025.53;;;28.75;56.92
11830;BME280;5972;42.134;24.718;2023-07-20T01:39:21;99019.31;;;28.71;56.74
11830;BME280;5972;42.134;24.718;2023-07-20T01:41:48;99027.63;;;28.80;56.77
11830;BME280;5972;42.134;24.718;2023-07-20T01:44:15;99013.66;;;28.65;56.64
11830;BME280;5972;42.134;24.718;2023-07-20T01:46:42;99034.34;;;28.73;56.70
11830;BME280;5972;42.134;24.718;2023-07-20T01:49:10;99036.44;;;28.64;56.88
11830;BME280;5972;42.134;24.718;2023-07-20T01:51:37;99030.78;;;28.73;56.46
11830;BME280;5972;42.134;24.718;2023-07-20T01:54:03;99033.38;;;28.76;56.66
11830;BME280;5972;42.134;24.718;2023-07-20T01:56:30;99035.97;;;28.80;56.57
11830;BME280;5972;42.134;24.718;2023-07-20T01:58:57;99028.59;;;28.91;54.91
11830;BME280;5972;42.134;24.718;2023-07-20T02:01:24;99022.72;;;28.89;55.68
11830;BME280;5972;42.134;24.718;2023-07-20T02:03:53;99024.94;;;28.85;55.97
11830;BME280;5972;42.134;24.718;2023-07-20T02:06:22;99010.88;;;28.65;56.58
11830;BME280;5972;42.134;24.718;2023-07-20T02:08:49;99042.50;;;28.77;57.31
11830;BME280;5972;42.134;24.718;2023-07-20T02:11:16;99042.31;;;28.80;57.33
11830;BME280;5972;42.134;24.718;2023-07-20T02:13:42;99040.31;;;28.81;57.06
11830;BME280;5972;42.134;24.718;2023-07-20T02:16:09;99018.75;;;28.67;56.70
11830;BME280;5972;42.134;24.718;2023-07-20T02:18:36;99040.94;;;28.76;56.82
11830;BME280;5972;42.134;24.718;2023-07-20T02:21:03;99008.59;;;28.64;55.83
11830;BME280;5972;42.134;24.718;2023-07-20T02:23:31;99040.00;;;28.79;56.19
11830;BME280;5972;42.134;24.718;2023-07-20T02:25:58;99047.13;;;28.80;56.51
11830;BME280;5972;42.134;24.718;2023-07-20T02:28:25;99046.06;;;28.77;56.83
11830;BME280;5972;42.134;24.718;2023-07-20T02:30:51;99041.81;;;28.82;55.76
11830;BME280;5972;42.134;24.718;2023-07-20T02:33:19;99045.47;;;28.73;56.50
11830;BME280;5972;42.134;24.718;2023-07-20T02:35:46;99036.78;;;28.71;57.16
11830;BME280;5972;42.134;24.718;2023-07-20T02:38:12;99034.09;;;28.47;57.69
11830;BME280;5972;42.134;24.718;2023-07-20T02:40:41;99040.72;;;28.50;57.88
11830;BME280;5972;42.134;24.718;2023-07-20T02:43:07;99031.56;;;28.35;58.88
11830;BME280;5972;42.134;24.718;2023-07-20T02:45:35;99032.13;;;28.39;59.59
11830;BME280;5972;42.134;24.718;2023-07-20T02:48:02;99041.47;;;28.36;61.20
11830;BME280;5972;42.134;24.718;2023-07-20T02:50:30;99038.38;;;28.34;61.20
11830;BME280;5972;42.134;24.718;2023-07-20T02:52:57;99047.28;;;28.38;61.49
11830;BME280;5972;42.134;24.718;2023-07-20T02:55:24;99041.63;;;28.32;61.91
11830;BME280;5972;42.134;24.718;2023-07-20T02:57:52;99039.56;;;28.42;61.94
11830;BME280;5972;42.134;24.718;2023-07-20T03:00:18;99020.72;;;28.37;61.38
11830;BME280;5972;42.134;24.718;2023-07-20T03:02:48;99040.59;;;28.44;61.80
11830;BME280;5972;42.134;24.718;2023-07-20T03:05:18;99030.59;;;28.38;62.65
11830;BME280;5972;42.134;24.718;2023-07-20T03:07:45;99033.56;;;28.34;62.78
11830;BME280;5972;42.134;24.718;2023-07-20T03:10:11;99022.44;;;28.10;64.20
11830;BME280;5972;42.134;24.718;2023-07-20T03:12:38;99029.38;;;28.15;64.15
11830;BME280;5972;42.134;24.718;2023-07-20T03:15:08;99033.09;;;28.12;64.69
11830;BME280;5972;42.134;24.718;2023-07-20T03:17:35;99031.63;;;28.26;64.34
11830;BME280;5972;42.134;24.718;2023-07-20T03:20:02;99032.22;;;28.30;63.12
11830;BME280;5972;42.134;24.718;2023-07-20T03:22:29;99029.91;;;28.28;63.51
11830;BME280;5972;42.134;24.718;2023-07-20T03:24:55;99025.59;;;28.27;63.70
11830;BME280;5972;42.134;24.718;2023-07-20T03:27:22;99033.34;;;28.23;64.18
11830;BME280;5972;42.134;24.718;2023-07-20T03:29:49;99030.38;;;28.27;64.04
11830;BME280;5972;42.134;24.718;2023-07-20T03:32:17;99016.25;;;28.16;64.68
11830;BME280;5972;42.134;24.718;2023-07-20T03:34:44;99020.44;;;28.35;63.86
11830;BME280;5972;42.134;24.718;2023-07-20T03:37:11;99014.75;;;28.29;65.47
11830;BME280;5972;42.134;24.718;2023-07-20T03:39:37;99012.00;;;28.44;64.49
11830;BME280;5972;42.134;24.718;2023-07-20T03:42:05;98998.84;;;28.44;64.34
11830;BME280;5972;42.134;24.718;2023-07-20T03:44:32;99016.44;;;28.65;62.84
11830;BME280;5972;42.134;24.718;2023-07-20T03:46:59;99020.72;;;28.75;62.95
11830;BME280;5972;42.134;24.718;2023-07-20T03:49:27;99006.97;;;29.01;61.83
11830;BME280;5972;42.134;24.718;2023-07-20T03:51:54;99007.03;;;29.21;60.29
11830;BME280;5972;42.134;24.718;2023-07-20T03:54:21;99012.81;;;29.47;57.84
11830;BME280;5972;42.134;24.718;2023-07-20T03:56:47;99008.50;;;29.66;56.92
11830;BME280;5972;42.134;24.718;2023-07-20T03:59:14;99006.16;;;29.80;55.75
11830;BME280;5972;42.134;24.718;2023-07-20T04:01:41;99014.69;;;29.56;55.35
11830;BME280;5972;42.134;24.718;2023-07-20T04:04:08;99017.19;;;29.54;54.72
11830;BME280;5972;42.134;24.718;2023-07-20T04:06:36;99020.25;;;29.56;56.98
11830;BME280;5972;42.134;24.718;2023-07-20T04:09:03;99019.31;;;29.59;57.85
11830;BME280;5972;42.134;24.718;2023-07-20T04:11:30;98997.84;;;29.85;56.42
11830;BME280;5972;42.134;24.718;2023-07-20T04:13:57;99012.78;;;30.23;52.22
11830;BME280;5972;42.134;24.718;2023-07-20T04:16:24;99027.88;;;30.77;50.86
11830;BME280;5972;42.134;24.718;2023-07-20T04:18:52;99031.56;;;31.14;50.32
11830;BME280;5972;42.134;24.718;2023-07-20T04:21:20;99023.84;;;31.77;47.30
11830;BME280;5972;42.134;24.718;2023-07-20T04:23:49;99026.56;;;33.01;44.83
11830;BME280;5972;42.134;24.718;2023-07-20T04:26:15;99019.81;;;34.10;40.95
11830;BME280;5972;42.134;24.718;2023-07-20T04:28:42;99006.75;;;34.71;39.30
11830;BME280;5972;42.134;24.718;2023-07-20T04:31:10;99039.16;;;34.25;39.18
11830;BME280;5972;42.134;24.718;2023-07-20T04:33:37;99043.56;;;34.04;39.96
11830;BME280;5972;42.134;24.718;2023-07-20T04:36:05;99045.84;;;34.00;39.33
11830;BME280;5972;42.134;24.718;2023-07-20T04:38:31;99044.28;;;34.27;38.81
11830;BME280;5972;42.134;24.718;2023-07-20T04:41:00;99048.69;;;35.04;37.81
11830;BME280;5972;42.134;24.718;2023-07-20T04:43:28;99042.19;;;35.99;36.26
11830;BME280;5972;42.134;24.718;2023-07-20T04:45:55;99042.59;;;37.02;34.45
11830;BME280;5972;42.134;24.718;2023-07-20T04:48:22;99044.75;;;38.12;32.23
11830;BME280;5972;42.134;24.718;2023-07-20T04:50:49;99056.06;;;39.06;31.23
11830;BME280;5972;42.134;24.718;2023-07-20T04:53:16;99058.97;;;39.14;31.36
11830;BME280;5972;42.134;24.718;2023-07-20T04:55:48;99068.75;;;38.45;33.02
11830;BME280;5972;42.134;24.718;2023-07-20T04:58:17;99061.41;;;37.13;34.35
11830;BME280;5972;42.134;24.718;2023-07-20T05:00:44;99063.31;;;36.73;35.50
11830;BME280;5972;42.134;24.718;2023-07-20T05:03:11;99055.06;;;37.25;35.16
11830;BME280;5972;42.134;24.718;2023-07-20T05:05:37;99059.59;;;35.97;35.78
11830;BME280;5972;42.134;24.718;2023-07-20T05:08:04;99073.16;;;35.99;36.02
11830;BME280;5972;42.134;24.718;2023-07-20T05:10:31;99061.81;;;35.26;37.31
11830;BME280;5972;42.134;24.718;2023-07-20T05:12:58;99061.69;;;35.42;36.50
11830;BME280;5972;42.134;24.718;2023-07-20T05:15:27;99058.41;;;35.63;36.17
11830;BME280;5972;42.134;24.718;2023-07-20T05:17:53;99058.84;;;36.40;35.44
11830;BME280;5972;42.134;24.718;2023-07-20T05:20:20;99056.72;;;38.05;33.32
11830;BME280;5972;42.134;24.718;2023-07-20T05:22:48;99062.00;;;37.24;34.65
11830;BME280;5972;42.134;24.718;2023-07-20T05:25:15;99014.66;;;37.88;33.27
11830;BME280;5972;42.134;24.718;2023-07-20T05:27:44;99055.47;;;38.53;31.86
11830;BME280;5972;42.134;24.718;2023-07-20T05:30:11;99044.38;;;39.31;30.50
11830;BME280;5972;42.134;24.718;2023-07-20T05:32:40;99047.19;;;39.44;31.18
11830;BME280;5972;42.134;24.718;2023-07-20T05:35:08;99047.22;;;38.29;32.34
11830;BME280;5972;42.134;24.718;2023-07-20T05:37:36;99044.44;;;37.31;34.38
11830;BME280;5972;42.134;24.718;2023-07-20T05:40:05;99057.00;;;38.41;33.18
11830;BME280;5972;42.134;24.718;2023-07-20T05:42:33;99043.44;;;37.87;33.20
11830;BME280;5972;42.134;24.718;2023-07-20T05:45:00;99041.84;;;37.78;32.97
11830;BME280;5972;42.134;24.718;2023-07-20T05:47:26;99035.38;;;36.88;34.65
11830;BME280;5972;42.134;24.718;2023-07-20T05:49:55;99036.16;;;36.32;34.93
11830;BME280;5972;42.134;24.718;2023-07-20T05:52:22;99035.28;;;35.16;36.54
11830;BME280;5972;42.134;24.718;2023-07-20T05:54:49;99027.06;;;35.18;36.29
11830;BME280;5972;42.134;24.718;2023-07-20T05:57:16;99033.63;;;38.54;32.27
11830;BME280;5972;42.134;24.718;2023-07-20T05:59:43;99020.00;;;40.05;29.92
11830;BME280;5972;42.134;24.718;2023-07-20T06:02:10;99032.41;;;40.23;29.28
11830;BME280;5972;42.134;24.718;2023-07-20T06:04:36;99020.81;;;40.57;28.23
11830;BME280;5972;42.134;24.718;2023-07-20T06:07:05;99012.53;;;40.66;28.11
11830;BME280;5972;42.134;24.718;2023-07-20T06:09:33;99005.03;;;41.45;27.06
11830;BME280;5972;42.134;24.718;2023-07-20T06:12:00;99011.81;;;41.72;26.65
11830;BME280;5972;42.134;24.718;2023-07-20T06:14:26;99013.38;;;41.28;27.18
11830;BME280;5972;42.134;24.718;2023-07-20T06:16:53;99010.78;;;42.08;26.34
11830;BME280;5972;42.134;24.718;2023-07-20T06:19:20;99000.50;;;41.34;27.09
11830;BME280;5972;42.134;24.718;2023-07-20T06:21:48;98981.22;;;40.36;27.71
11830;BME280;5972;42.134;24.718;2023-07-20T06:24:17;99004.09;;;40.38;28.46
11830;BME280;5972;42.134;24.718;2023-07-20T06:26:44;98985.88;;;38.03;31.50
11830;BME280;5972;42.134;24.718;2023-07-20T06:29:11;98991.75;;;36.57;33.22
11830;BME280;5972;42.134;24.718;2023-07-20T06:31:38;98995.25;;;36.63;33.64
11830;BME280;5972;42.134;24.718;2023-07-20T06:34:05;99002.66;;;36.29;34.31
11830;BME280;5972;42.134;24.718;2023-07-20T06:36:31;98988.00;;;35.93;34.32
11830;BME280;5972;42.134;24.718;2023-07-20T06:38:58;98985.69;;;35.91;35.27
11830;BME280;5972;42.134;24.718;2023-07-20T06:41:27;98984.59;;;36.37;34.03
11830;BME280;5972;42.134;24.718;2023-07-20T06:43:53;98995.19;;;36.50;33.52
11830;BME280;5972;42.134;24.718;2023-07-20T06:46:24;98992.97;;;36.61;33.57
11830;BME280;5972;42.134;24.718;2023-07-20T06:48:51;98983.91;;;37.00;32.93
11830;BME280;5972;42.134;24.718;2023-07-20T06:51:18;98991.25;;;36.21;34.20
11830;BME280;5972;42.134;24.718;2023-07-20T06:53:44;98985.59;;;36.40;34.03
11830;BME280;5972;42.134;24.718;2023-07-20T06:56:11;98987.94;;;36.54;33.76
11830;BME280;5972;42.134;24.718;2023-07-20T06:58:40;98975.28;;;35.37;35.32
11830;BME280;5972;42.134;24.718;2023-07-20T07:01:07;98993.00;;;35.81;35.04
11830;BME280;5972;42.134;24.718;2023-07-20T07:03:34;98994.47;;;35.33;35.59
11830;BME280;5972;42.134;24.718;2023-07-20T07:06:02;98983.66;;;35.67;35.06
11830;BME280;5972;42.134;24.718;2023-07-20T07:08:29;98987.72;;;34.47;36.82
11830;BME280;5972;42.134;24.718;2023-07-20T07:10:55;98989.47;;;34.91;36.17
11830;BME280;5972;42.134;24.718;2023-07-20T07:13:22;98988.44;;;34.94;35.83
11830;BME280;5972;42.134;24.718;2023-07-20T07:15:51;98991.91;;;34.29;36.94
11830;BME280;5972;42.134;24.718;2023-07-20T07:18:18;98983.19;;;33.64;37.71
11830;BME280;5972;42.134;24.718;2023-07-20T07:20:54;98960.00;;;33.52;38.48
11830;BME280;5972;42.134;24.718;2023-07-20T07:23:21;98975.25;;;33.79;38.81
11830;BME280;5972;42.134;24.718;2023-07-20T07:25:48;98967.19;;;33.36;38.32
11830;BME280;5972;42.134;24.718;2023-07-20T07:28:15;98982.00;;;33.04;38.64
11830;BME280;5972;42.134;24.718;2023-07-20T07:30:42;98980.97;;;32.79;38.26
11830;BME280;5972;42.134;24.718;2023-07-20T07:33:10;98981.22;;;33.09;39.08
11830;BME280;5972;42.134;24.718;2023-07-20T07:35:37;98974.53;;;33.56;39.03
11830;BME280;5972;42.134;24.718;2023-07-20T07:38:05;98959.25;;;32.57;40.14
11830;BME280;5972;42.134;24.718;2023-07-20T07:40:32;98969.25;;;32.91;39.62
11830;BME280;5972;42.134;24.718;2023-07-20T07:42:58;98969.72;;;33.40;38.52
11830;BME280;5972;42.134;24.718;2023-07-20T07:45:25;98955.66;;;34.31;36.76
11830;BME280;5972;42.134;24.718;2023-07-20T07:47:52;98961.31;;;34.61;37.21
11830;BME280;5972;42.134;24.718;2023-07-20T07:50:20;98969.34;;;34.46;36.40
11830;BME280;5972;42.134;24.718;2023-07-20T07:52:47;98970.06;;;34.00;36.82
11830;BME280;5972;42.134;24.718;2023-07-20T07:55:13;98961.06;;;34.59;35.90
11830;BME280;5972;42.134;24.718;2023-07-20T07:57:42;98963.03;;;35.05;35.04
11830;BME280;5972;42.134;24.718;2023-07-20T08:00:09;98967.66;;;35.57;34.26
11830;BME280;5972;42.134;24.718;2023-07-20T08:02:40;98971.13;;;35.44;34.52
11830;BME280;5972;42.134;24.718;2023-07-20T08:05:08;98940.50;;;35.59;34.25
11830;BME280;5972;42.134;24.718;2023-07-20T08:07:36;98964.03;;;36.05;33.88
11830;BME280;5972;42.134;24.718;2023-07-20T08:10:04;98966.72;;;36.16;34.13
11830;BME280;5972;42.134;24.718;2023-07-20T08:12:31;98972.78;;;36.57;33.55
11830;BME280;5972;42.134;24.718;2023-07-20T08:14:58;98962.34;;;36.71;33.79
11830;BME280;5972;42.134;24.718;2023-07-20T08:17:24;98967.59;;;35.87;34.48
11830;BME280;5972;42.134;24.718;2023-07-20T08:19:51;98970.00;;;35.53;34.87
11830;BME280;5972;42.134;24.718;2023-07-20T08:22:18;98966.75;;;35.19;35.37
11830;BME280;5972;42.134;24.718;2023-07-20T08:24:46;98963.25;;;35.07;35.48
11830;BME280;5972;42.134;24.718;2023-07-20T08:27:13;98970.09;;;34.87;35.98
11830;BME280;5972;42.134;24.718;2023-07-20T08:29:39;98969.03;;;35.44;35.02
11830;BME280;5972;42.134;24.718;2023-07-20T08:32:06;98965.28;;;35.85;34.53
11830;BME280;5972;42.134;24.718;2023-07-20T08:34:33;98972.13;;;36.33;33.64
11830;BME280;5972;42.134;24.718;2023-07-20T08:37:00;98978.50;;;36.52;33.17
11830;BME280;5972;42.134;24.718;2023-07-20T08:39:27;98975.81;;;37.10;32.90
11830;BME280;5972;42.134;24.718;2023-07-20T08:41:55;98978.31;;;37.14;32.61
11830;BME280;5972;42.134;24.718;2023-07-20T08:44:22;98962.00;;;36.43;33.90
11830;BME280;5972;42.134;24.718;2023-07-20T08:46:51;98967.25;;;35.17;35.77
11830;BME280;5972;42.134;24.718;2023-07-20T08:49:19;98970.41;;;35.38;35.71
11830;BME280;5972;42.134;24.718;2023-07-20T08:51:46;98961.09;;;35.73;35.24
11830;BME280;5972;42.134;24.718;2023-07-20T08:54:13;98934.50;;;35.50;35.21
11830;BME280;5972;42.134;24.718;2023-07-20T08:56:41;98955.34;;;35.60;35.41
11830;BME280;5972;42.134;24.718;2023-07-20T08:59:11;98945.28;;;34.50;37.34
11830;BME280;5972;42.134;24.718;2023-07-20T09:01:39;98942.59;;;35.04;36.44
11830;BME280;5972;42.134;24.718;2023-07-20T09:04:06;98945.81;;;34.84;36.81
11830;BME280;5972;42.134;24.718;2023-07-20T09:06:35;98940.56;;;35.29;36.22
11830;BME280;5972;42.134;24.718;2023-07-20T09:09:02;98935.19;;;35.99;35.30
11830;BME280;5972;42.134;24.718;2023-07-20T09:11:29;98922.38;;;36.35;34.05
11830;BME280;5972;42.134;24.718;2023-07-20T09:14:04;98919.88;;;36.50;34.16
11830;BME280;5972;42.134;24.718;2023-07-20T09:16:32;98915.19;;;37.30;33.29
11830;BME280;5972;42.134;24.718;2023-07-20T09:18:59;98931.00;;;37.85;32.30
11830;BME280;5972;42.134;24.718;2023-07-20T09:21:29;98924.72;;;37.93;32.23
11830;BME280;5972;42.134;24.718;2023-07-20T09:23:56;98896.91;;;38.31;31.32
11830;BME280;5972;42.134;24.718;2023-07-20T09:26:23;98917.50;;;38.52;30.88
11830;BME280;5972;42.134;24.718;2023-07-20T09:28:52;98900.44;;;38.44;31.01
11830;BME280;5972;42.134;24.718;2023-07-20T09:31:21;98895.72;;;37.79;31.73
11830;BME280;5972;42.134;24.718;2023-07-20T09:33:49;98905.72;;;37.80;31.16
11830;BME280;5972;42.134;24.718;2023-07-20T09:36:18;98896.41;;;36.42;33.29
11830;BME280;5972;42.134;24.718;2023-07-20T09:38:45;98897.84;;;37.39;32.49
11830;BME280;5972;42.134;24.718;2023-07-20T09:41:13;98893.34;;;37.83;31.93
11830;BME280;5972;42.134;24.718;2023-07-20T09:43:41;98888.75;;;37.93;31.70
11830;BME280;5972;42.134;24.718;2023-07-20T09:46:08;98880.19;;;37.85;31.19
11830;BME280;5972;42.134;24.718;2023-07-20T09:48:35;98890.41;;;37.88;31.62
11830;BME280;5972;42.134;24.718;2023-07-20T09:51:04;98884.28;;;38.11;31.64
11830;BME280;5972;42.134;24.718;2023-07-20T09:53:32;98889.44;;;37.46;32.00
11830;BME280;5972;42.134;24.718;2023-07-20T09:56:00;98880.88;;;37.78;31.52
11830;BME280;5972;42.134;24.718;2023-07-20T09:58:27;98876.66;;;37.32;32.07
11830;BME280;5972;42.134;24.718;2023-07-20T10:00:56;98868.72;;;37.31;31.93
11830;BME280;5972;42.134;24.718;2023-07-20T10:03:28;98862.41;;;36.98;32.79
11830;BME280;5972;42.134;24.718;2023-07-20T10:05:57;98858.91;;;36.66;32.70
11830;BME280;5972;42.134;24.718;2023-07-20T10:08:27;98836.72;;;36.89;32.23
11830;BME280;5972;42.134;24.718;2023-07-20T10:10:57;98862.84;;;37.02;32.57
11830;BME280;5972;42.134;24.718;2023-07-20T10:13:27;98860.97;;;36.65;33.12
11830;BME280;5972;42.134;24.718;2023-07-20T10:15:54;98834.97;;;36.73;32.65
11830;BME280;5972;42.134;24.718;2023-07-20T10:18:28;98843.09;;;36.89;32.68
11830;BME280;5972;42.134;24.718;2023-07-20T10:20:56;98836.44;;;36.74;33.13
11830;BME280;5972;42.134;24.718;2023-07-20T10:23:28;98825.22;;;37.00;32.90
11830;BME280;5972;42.134;24.718;2023-07-20T10:25:55;98836.09;;;37.09;32.86
11830;BME280;5972;42.134;24.718;2023-07-20T10:28:23;98820.13;;;37.38;32.40
11830;BME280;5972;42.134;24.718;2023-07-20T10:30:50;98826.06;;;37.34;32.10
11830;BME280;5972;42.134;24.718;2023-07-20T10:33:18;98820.66;;;37.23;32.05
11830;BME280;5972;42.134;24.718;2023-07-20T10:35:52;98813.66;;;37.64;31.76
11830;BME280;5972;42.134;24.718;2023-07-20T10:38:19;98806.41;;;38.23;30.92
11830;BME280;5972;42.134;24.718;2023-07-20T10:40:55;98803.03;;;38.45;30.73
11830;BME280;5972;42.134;24.718;2023-07-20T10:43:22;98804.41;;;38.73;31.12
11830;BME280;5972;42.134;24.718;2023-07-20T10:45:51;98807.50;;;39.18;29.44
11830;BME280;5972;42.134;24.718;2023-07-20T10:48:19;98810.41;;;38.27;30.40
11830;BME280;5972;42.134;24.718;2023-07-20T10:51:11;98808.06;;;38.18;30.48
11830;BME280;5972;42.134;24.718;2023-07-20T10:53:39;98808.72;;;37.30;30.48
11830;BME280;5972;42.134;24.718;2023-07-20T10:56:07;98787.97;;;37.88;29.71
11830;BME280;5972;42.134;24.718;2023-07-20T10:58:34;98792.50;;;37.91;30.01
11830;BME280;5972;42.134;24.718;2023-07-20T11:01:03;98787.63;;;37.58;30.91
11830;BME280;5972;42.134;24.718;2023-07-20T11:03:32;98784.25;;;37.46;31.23
11830;BME280;5972;42.134;24.718;2023-07-20T11:05:59;98786.19;;;37.51;30.30
11830;BME280;5972;42.134;24.718;2023-07-20T11:08:42;98782.09;;;37.52;29.88
11830;BME280;5972;42.134;24.718;2023-07-20T11:11:27;98779.09;;;37.84;29.41
11830;BME280;5972;42.134;24.718;2023-07-20T11:13:55;98773.19;;;37.48;29.28
11830;BME280;5972;42.134;24.718;2023-07-20T11:16:44;98773.91;;;37.96;29.29
11830;BME280;5972;42.134;24.718;2023-07-20T11:19:15;98779.38;;;38.35;28.96
11830;BME280;5972;42.134;24.718;2023-07-20T11:21:43;98783.16;;;38.87;28.20
11830;BME280;5972;42.134;24.718;2023-07-20T11:24:12;98777.13;;;38.54;28.55
11830;BME280;5972;42.134;24.718;2023-07-20T11:26:43;98784.53;;;39.22;28.72
11830;BME280;5972;42.134;24.718;2023-07-20T11:29:10;98774.13;;;39.60;27.90
11830;BME280;5972;42.134;24.718;2023-07-20T11:31:38;98763.84;;;39.93;27.32
11830;BME280;5972;42.134;24.718;2023-07-20T11:34:05;98756.88;;;40.17;26.50
11830;BME280;5972;42.134;24.718;2023-07-20T11:36:33;98745.41;;;39.48;27.49
11830;BME280;5972;42.134;24.718;2023-07-20T11:39:00;98754.34;;;39.24;27.63
11830;BME280;5972;42.134;24.718;2023-07-20T11:41:31;98752.31;;;38.68;28.10
11830;BME280;5972;42.134;24.718;2023-07-20T11:43:58;98747.19;;;39.23;28.04
11830;BME280;5972;42.134;24.718;2023-07-20T11:46:25;98739.19;;;39.06;27.78
11830;BME280;5972;42.134;24.718;2023-07-20T11:48:56;98754.66;;;38.77;27.96
11830;BME280;5972;42.134;24.718;2023-07-20T11:51:24;98742.03;;;38.50;28.59
11830;BME280;5972;42.134;24.718;2023-07-20T11:53:51;98738.97;;;39.04;28.19
11830;BME280;5972;42.134;24.718;2023-07-20T11:56:18;98739.13;;;38.99;28.31
11830;BME280;5972;42.134;24.718;2023-07-20T11:58:46;98726.97;;;38.83;28.27
11830;BME280;5972;42.134;24.718;2023-07-20T12:01:13;98739.44;;;38.59;28.22
11830;BME280;5972;42.134;24.718;2023-07-20T12:03:41;98749.59;;;38.83;27.95
11830;BME280;5972;42.134;24.718;2023-07-20T12:06:08;98738.22;;;39.47;27.55
11830;BME280;5972;42.134;24.718;2023-07-20T12:08:38;98705.47;;;39.82;27.06
11830;BME280;5972;42.134;24.718;2023-07-20T12:11:05;98720.56;;;40.08;26.62
11830;BME280;5972;42.134;24.718;2023-07-20T12:13:40;98715.50;;;40.29;26.86
11830;BME280;5972;42.134;24.718;2023-07-20T12:16:13;98714.34;;;40.47;26.55
11830;BME280;5972;42.134;24.718;2023-07-20T12:18:43;98708.63;;;40.78;26.28
11830;BME280;5972;42.134;24.718;2023-07-20T12:21:10;98691.28;;;40.43;26.80
11830;BME280;5972;42.134;24.718;2023-07-20T12:23:46;98689.56;;;40.55;26.66
11830;BME280;5972;42.134;24.718;2023-07-20T12:26:14;98682.19;;;40.60;26.34
11830;BME280;5972;42.134;24.718;2023-07-20T12:28:41;98674.97;;;40.74;26.16
11830;BME280;5972;42.134;24.718;2023-07-20T12:31:08;98652.38;;;39.60;27.36
11830;BME280;5972;42.134;24.718;2023-07-20T12:33:40;98614.59;;;40.11;26.73
11830;BME280;5972;42.134;24.718;2023-07-20T12:36:08;98651.19;;;40.54;26.11
11830;BME280;5972;42.134;24.718;2023-07-20T12:38:35;98654.03;;;40.54;25.90
11830;BME280;5972;42.134;24.718;2023-07-20T12:41:02;98623.84;;;39.43;27.15
11830;BME280;5972;42.134;24.718;2023-07-20T12:43:29;98647.00;;;39.26;28.10
11830;BME280;5972;42.134;24.718;2023-07-20T12:45:57;98648.78;;;39.60;27.32
11830;BME280;5972;42.134;24.718;2023-07-20T12:48:24;98657.38;;;39.31;28.49
11830;BME280;5972;42.134;24.718;2023-07-20T12:50:53;98664.06;;;39.57;27.84
11830;BME280;5972;42.134;24.718;2023-07-20T12:53:20;98666.00;;;39.11;28.74
11830;BME280;5972;42.134;24.718;2023-07-20T12:55:47;98658.16;;;38.88;28.79
11830;BME280;5972;42.134;24.718;2023-07-20T12:58:15;98649.34;;;38.92;28.27
11830;BME280;5972;42.134;24.718;2023-07-20T13:00:42;98656.63;;;39.23;28.53
11830;BME280;5972;42.134;24.718;2023-07-20T13:03:09;98644.50;;;39.15;28.24
11830;BME280;5972;42.134;24.718;2023-07-20T13:05:35;98670.84;;;39.38;28.33